createdAt,value
2022-08-05T00:00:08.862Z,98431.56
2022-08-05T00:00:22.356Z,98438.00
2022-08-05T00:00:35.278Z,98428.31
2022-08-05T00:01:20.185Z,98440.00
2022-08-05T00:01:35.745Z,98434.91
2022-08-05T00:01:49.777Z,98431.34
2022-08-05T00:02:07.194Z,98433.22
2022-08-05T00:02:21.077Z,98432.72
2022-08-05T00:02:34.058Z,98428.97
2022-08-05T00:02:51.809Z,98436.09
2022-08-05T00:03:04.976Z,98436.97
2022-08-05T00:03:19.053Z,98432.56
2022-08-05T00:03:31.909Z,98431.69
2022-08-05T00:03:44.895Z,98434.41
2022-08-05T00:03:58.376Z,98434.72
2022-08-05T00:04:11.250Z,98424.75
2022-08-05T00:04:26.396Z,98423.87
2022-08-05T00:04:40.299Z,98430.44
2022-08-05T00:04:55.572Z,98430.28
2022-08-05T00:05:09.123Z,98435.59
2022-08-05T00:06:04.801Z,98430.63
2022-08-05T00:06:29.109Z,98435.38
2022-08-05T00:06:47.214Z,98431.16
2022-08-05T00:07:26.901Z,98431.28
2022-08-05T00:08:00.169Z,98432.00
2022-08-05T00:08:34.079Z,98425.88
2022-08-05T00:08:43.110Z,98435.38
2022-08-05T00:08:56.397Z,98438.75
2022-08-05T00:09:12.928Z,98427.56
2022-08-05T00:09:28.909Z,98434.34
2022-08-05T00:09:44.656Z,98430.63
2022-08-05T00:09:58.822Z,98430.09
2022-08-05T00:10:11.689Z,98431.97
2022-08-05T00:10:27.097Z,98430.09
2022-08-05T00:10:40.243Z,98436.56
2022-08-05T00:10:53.136Z,98425.69
2022-08-05T00:11:23.892Z,98426.53
2022-08-05T00:11:49.545Z,98430.28
2022-08-05T00:12:09.165Z,98428.75
2022-08-05T00:12:26.073Z,98432.47
2022-08-05T00:12:56.459Z,98432.16
2022-08-05T00:13:09.965Z,98426.72
2022-08-05T00:13:38.800Z,98437.75
2022-08-05T00:13:52.933Z,98428.59
2022-08-05T00:14:12.777Z,98438.75
2022-08-05T00:14:31.528Z,98437.06
2022-08-05T00:14:44.618Z,98431.28
2022-08-05T00:14:57.945Z,98431.28
2022-08-05T00:15:54.445Z,98428.59
2022-08-05T00:15:57.525Z,98437.91
2022-08-05T00:16:14.203Z,98439.09
2022-08-05T00:16:35.418Z,98433.16
2022-08-05T00:16:53.233Z,98433.69
2022-08-05T00:17:19.612Z,98431.13
2022-08-05T00:17:33.435Z,98437.22
2022-08-05T00:17:46.493Z,98426.22
2022-08-05T00:18:02.550Z,98428.91
2022-08-05T00:18:22.568Z,98433.69
2022-08-05T00:18:38.032Z,98430.97
2022-08-05T00:18:51.186Z,98433.69
2022-08-05T00:19:04.096Z,98435.38
2022-08-05T00:19:16.976Z,98429.09
2022-08-05T00:19:43.998Z,98434.53
2022-08-05T00:20:02.685Z,98433.69
2022-08-05T00:20:16.016Z,98436.22
2022-08-05T00:20:33.310Z,98427.22
2022-08-05T00:20:46.225Z,98430.63
2022-08-05T00:21:01.669Z,98431.28
2022-08-05T00:21:14.913Z,98426.88
2022-08-05T00:21:30.691Z,98430.28
2022-08-05T00:21:43.689Z,98433.34
2022-08-05T00:21:56.872Z,98427.91
2022-08-05T00:22:11.255Z,98430.63
2022-08-05T00:22:24.487Z,98428.75
2022-08-05T00:22:37.580Z,98432.31
2022-08-05T00:23:02.319Z,98427.19
2022-08-05T00:23:44.424Z,98430.94
2022-08-05T00:24:09.941Z,98425.19
2022-08-05T00:24:24.517Z,98425.03
2022-08-05T00:24:43.636Z,98426.88
2022-08-05T00:24:56.525Z,98432.31
2022-08-05T00:25:10.413Z,98430.44
2022-08-05T00:25:25.745Z,98430.44
2022-08-05T00:25:46.000Z,98428.75
2022-08-05T00:25:59.258Z,98426.03
2022-08-05T00:26:15.192Z,98435.34
2022-08-05T00:26:29.390Z,98437.87
2022-08-05T00:26:51.978Z,98431.59
2022-08-05T00:27:10.550Z,98430.06
2022-08-05T00:27:36.077Z,98436.00
2022-08-05T00:27:49.470Z,98428.72
2022-08-05T00:28:03.796Z,98433.31
2022-08-05T00:28:16.714Z,98428.72
2022-08-05T00:28:42.376Z,98430.41
2022-08-05T00:28:58.607Z,98432.09
2022-08-05T00:29:11.479Z,98427.38
2022-08-05T00:29:25.490Z,98426.50
2022-08-05T00:29:38.871Z,98426.50
2022-08-05T00:29:51.722Z,98430.63
2022-08-05T00:30:11.290Z,98425.19
2022-08-05T00:30:31.936Z,98426.34
2022-08-05T00:30:45.146Z,98431.59
2022-08-05T00:31:05.554Z,98430.94
2022-08-05T00:31:53.255Z,98428.22
2022-08-05T00:32:13.553Z,98422.09
2022-08-05T00:32:27.000Z,98427.53
2022-08-05T00:32:40.458Z,98420.75
2022-08-05T00:32:53.487Z,98430.59
2022-08-05T00:33:06.754Z,98432.09
2022-08-05T00:34:54.216Z,98425.31
2022-08-05T00:34:56.490Z,98430.41
2022-08-05T00:34:57.051Z,98432.28
2022-08-05T00:35:07.903Z,98426.84
2022-08-05T00:35:20.907Z,98426.16
2022-08-05T00:35:33.847Z,98429.91
2022-08-05T00:36:15.024Z,98423.13
2022-08-05T00:37:09.766Z,98426.84
2022-08-05T00:37:12.745Z,98425.84
2022-08-05T00:37:26.419Z,98421.59
2022-08-05T00:37:53.022Z,98425.50
2022-08-05T00:38:06.738Z,98424.47
2022-08-05T00:38:28.941Z,98422.44
2022-08-05T00:38:46.858Z,98437.03
2022-08-05T00:38:59.772Z,98425.84
2022-08-05T00:39:13.429Z,98428.03
2022-08-05T00:39:26.507Z,98420.91
2022-08-05T00:39:58.412Z,98431.06
2022-08-05T00:40:12.340Z,98428.50
2022-08-05T00:40:27.004Z,98429.34
2022-08-05T00:40:53.396Z,98425.63
2022-08-05T00:41:11.705Z,98430.22
2022-08-05T00:41:29.264Z,98428.34
2022-08-05T00:42:02.123Z,98423.25
2022-08-05T00:42:32.167Z,98427.84
2022-08-05T00:42:48.291Z,98426.81
2022-08-05T00:43:02.896Z,98423.78
2022-08-05T00:43:20.623Z,98419.91
2022-08-05T00:43:46.734Z,98421.75
2022-08-05T00:44:00.738Z,98423.09
2022-08-05T00:44:14.919Z,98425.97
2022-08-05T00:44:30.848Z,98425.97
2022-08-05T00:44:44.456Z,98419.69
2022-08-05T00:44:57.361Z,98421.38
2022-08-05T00:45:11.625Z,98420.72
2022-08-05T00:45:37.927Z,98419.69
2022-08-05T00:45:52.088Z,98419.34
2022-08-05T00:46:05.640Z,98423.47
2022-08-05T00:46:19.727Z,98421.94
2022-08-05T00:46:54.244Z,98424.78
2022-08-05T00:47:15.111Z,98421.72
2022-08-05T00:47:52.900Z,98421.38
2022-08-05T00:48:05.313Z,98425.28
2022-08-05T00:48:27.394Z,98422.25
2022-08-05T00:48:50.722Z,98415.97
2022-08-05T00:49:04.553Z,98420.06
2022-08-05T00:49:20.774Z,98423.63
2022-08-05T00:49:51.487Z,98422.06
2022-08-05T00:50:05.069Z,98417.66
2022-08-05T00:50:18.499Z,98414.25
2022-08-05T00:50:33.937Z,98422.25
2022-08-05T00:50:48.222Z,98420.38
2022-08-05T00:51:01.187Z,98422.25
2022-08-05T00:51:50.318Z,98417.66
2022-08-05T00:51:54.957Z,98425.13
2022-08-05T00:52:07.874Z,98416.63
2022-08-05T00:52:28.518Z,98418.38
2022-08-05T00:52:41.728Z,98420.72
2022-08-05T00:52:58.430Z,98420.38
2022-08-05T00:53:44.908Z,98421.56
2022-08-05T00:54:01.084Z,98415.78
2022-08-05T00:54:15.858Z,98426.66
2022-08-05T00:54:30.349Z,98415.44
2022-08-05T00:54:43.446Z,98422.25
2022-08-05T00:54:56.440Z,98415.66
2022-08-05T00:55:09.512Z,98416.63
2022-08-05T00:55:22.885Z,98416.50
2022-08-05T00:55:42.780Z,98417.50
2022-08-05T00:55:56.684Z,98411.94
2022-08-05T00:56:09.520Z,98413.25
2022-08-05T00:56:23.096Z,98413.25
2022-08-05T00:56:36.493Z,98417.81
2022-08-05T00:56:51.542Z,98412.22
2022-08-05T00:57:04.972Z,98414.25
2022-08-05T00:57:17.923Z,98415.13
2022-08-05T00:57:55.401Z,98416.47
2022-08-05T00:58:07.295Z,98414.09
2022-08-05T00:58:27.397Z,98417.81
2022-08-05T00:58:42.594Z,98418.34
2022-08-05T00:58:57.950Z,98414.59
2022-08-05T00:59:13.222Z,98416.97
2022-08-05T00:59:26.222Z,98416.97
2022-08-05T00:59:48.729Z,98412.22
2022-08-05T01:00:02.235Z,98413.75
2022-08-05T01:00:15.427Z,98412.22
2022-08-05T01:00:30.509Z,98411.22
2022-08-05T01:00:44.674Z,98414.78
2022-08-05T01:00:57.830Z,98406.97
2022-08-05T01:01:11.636Z,98417.97
2022-08-05T01:01:42.737Z,98407.81
2022-08-05T01:01:58.590Z,98411.22
2022-08-05T01:02:13.799Z,98406.63
2022-08-05T01:02:29.654Z,98413.94
2022-08-05T01:02:43.615Z,98410.34
2022-08-05T01:02:57.543Z,98404.09
2022-08-05T01:03:22.585Z,98407.09
2022-08-05T01:03:37.330Z,98406.13
2022-08-05T01:03:52.029Z,98407.28
2022-08-05T01:04:14.081Z,98409.97
2022-08-05T01:04:29.765Z,98411.69
2022-08-05T01:04:42.925Z,98411.53
2022-08-05T01:04:56.434Z,98403.53
2022-08-05T01:05:10.058Z,98411.53
2022-08-05T01:05:23.859Z,98404.25
2022-08-05T01:05:37.798Z,98402.91
2022-08-05T01:05:54.510Z,98404.94
2022-08-05T01:06:11.387Z,98404.94
2022-08-05T01:06:32.719Z,98405.78
2022-08-05T01:06:48.603Z,98405.41
2022-08-05T01:07:01.901Z,98412.53
2022-08-05T01:07:18.231Z,98403.72
2022-08-05T01:07:31.595Z,98407.81
2022-08-05T01:08:30.697Z,98400.69
2022-08-05T01:08:31.611Z,98405.09
2022-08-05T01:08:50.624Z,98406.81
2022-08-05T01:09:06.198Z,98405.25
2022-08-05T01:09:19.981Z,98407.28
2022-08-05T01:09:33.265Z,98403.72
2022-08-05T01:09:46.157Z,98406.25
2022-08-05T01:10:09.157Z,98407.94
2022-08-05T01:10:25.918Z,98409.31
2022-08-05T01:10:52.550Z,98404.22
2022-08-05T01:11:22.399Z,98408.47
2022-08-05T01:11:37.665Z,98408.78
2022-08-05T01:11:51.976Z,98407.59
2022-08-05T01:12:18.720Z,98406.75
2022-08-05T01:12:31.916Z,98409.13
2022-08-05T01:13:00.413Z,98406.44
2022-08-05T01:13:58.494Z,98409.97
2022-08-05T01:14:16.334Z,98404.03
2022-08-05T01:14:40.014Z,98406.25
2022-08-05T01:14:58.360Z,98404.72
2022-08-05T01:15:36.413Z,98409.13
2022-08-05T01:15:48.747Z,98411.69
2022-08-05T01:16:03.113Z,98407.78
2022-08-05T01:16:26.079Z,98405.06
2022-08-05T01:16:54.719Z,98409.31
2022-08-05T01:17:17.894Z,98402.00
2022-08-05T01:17:44.068Z,98406.41
2022-08-05T01:18:00.404Z,98405.56
2022-08-05T01:18:16.353Z,98405.41
2022-08-05T01:18:33.660Z,98405.41
2022-08-05T01:18:48.144Z,98397.25
2022-08-05T01:19:16.335Z,98404.38
2022-08-05T01:20:01.023Z,98405.41
2022-08-05T01:20:34.513Z,98407.09
2022-08-05T01:20:55.523Z,98399.81
2022-08-05T01:21:38.214Z,98407.94
2022-08-05T01:22:00.620Z,98403.38
2022-08-05T01:22:27.730Z,98402.00
2022-08-05T01:22:46.810Z,98400.28
2022-08-05T01:23:22.796Z,98400.28
2022-08-05T01:23:53.040Z,98404.00
2022-08-05T01:24:35.688Z,98395.19
2022-08-05T01:25:20.806Z,98400.63
2022-08-05T01:26:12.901Z,98407.56
2022-08-05T01:26:34.240Z,98400.94
2022-08-05T01:27:32.962Z,98404.00
2022-08-05T01:28:04.571Z,98402.13
2022-08-05T01:28:23.143Z,98406.88
2022-08-05T01:28:44.069Z,98400.94
2022-08-05T01:29:11.430Z,98402.66
2022-08-05T01:29:32.968Z,98401.25
2022-08-05T01:29:50.502Z,98398.91
2022-08-05T01:30:05.134Z,98407.06
2022-08-05T01:30:33.747Z,98405.19
2022-08-05T01:30:57.321Z,98403.81
2022-08-05T01:31:34.532Z,98397.38
2022-08-05T01:32:00.760Z,98405.53
2022-08-05T01:32:18.464Z,98402.66
2022-08-05T01:32:33.855Z,98398.22
2022-08-05T01:32:46.890Z,98403.66
2022-08-05T01:32:59.745Z,98400.94
2022-08-05T01:33:13.006Z,98399.75
2022-08-05T01:33:35.123Z,98398.22
2022-08-05T01:33:53.846Z,98401.97
2022-08-05T01:34:17.770Z,98405.69
2022-08-05T01:34:39.135Z,98404.12
2022-08-05T01:34:58.721Z,98402.09
2022-08-05T01:35:50.248Z,98400.41
2022-08-05T01:35:53.167Z,98407.53
2022-08-05T01:36:12.867Z,98405.34
2022-08-05T01:36:31.703Z,98404.50
2022-08-05T01:36:55.142Z,98406.53
2022-08-05T01:37:25.067Z,98406.00
2022-08-05T01:37:44.919Z,98409.56
2022-08-05T01:37:58.599Z,98409.38
2022-08-05T01:38:24.767Z,98411.97
2022-08-05T01:38:41.920Z,98404.69
2022-08-05T01:38:55.841Z,98406.53
2022-08-05T01:39:08.792Z,98404.69
2022-08-05T01:39:46.371Z,98407.37
2022-08-05T01:39:55.041Z,98410.09
2022-08-05T01:40:12.755Z,98405.09
2022-08-05T01:40:29.174Z,98403.28
2022-08-05T01:40:42.214Z,98401.56
2022-08-05T01:40:56.980Z,98404.12
2022-08-05T01:41:09.955Z,98405.81
2022-08-05T01:41:25.539Z,98404.97
2022-08-05T01:41:38.741Z,98408.41
2022-08-05T01:41:57.805Z,98410.09
2022-08-05T01:42:12.472Z,98406.84
2022-08-05T01:42:27.211Z,98404.97
2022-08-05T01:42:40.210Z,98403.81
2022-08-05T01:42:53.781Z,98402.97
2022-08-05T01:43:06.648Z,98403.13
2022-08-05T01:43:22.267Z,98402.25
2022-08-05T01:43:36.986Z,98403.41
2022-08-05T01:43:53.804Z,98406.69
2022-08-05T01:44:09.881Z,98407.37
2022-08-05T01:44:22.955Z,98407.37
2022-08-05T01:44:54.177Z,98409.38
2022-08-05T01:45:08.378Z,98406.97
2022-08-05T01:45:21.575Z,98410.69
2022-08-05T01:45:34.854Z,98402.56
2022-08-05T01:45:56.429Z,98412.41
2022-08-05T01:46:16.290Z,98410.69
2022-08-05T01:46:46.381Z,98407.69
2022-08-05T01:46:59.599Z,98404.59
2022-08-05T01:47:12.673Z,98412.41
2022-08-05T01:47:38.888Z,98408.16
2022-08-05T01:47:54.576Z,98408.16
2022-08-05T01:48:10.224Z,98408.31
2022-08-05T01:48:24.033Z,98410.19
2022-08-05T01:48:37.192Z,98409.34
2022-08-05T01:48:50.352Z,98403.91
2022-08-05T01:49:23.000Z,98405.94
2022-08-05T01:50:00.106Z,98413.06
2022-08-05T01:50:50.999Z,98405.59
2022-08-05T01:51:12.460Z,98409.00
2022-08-05T01:51:26.171Z,98406.13
2022-08-05T01:51:43.143Z,98409.00
2022-08-05T01:52:12.437Z,98404.25
2022-08-05T01:52:32.386Z,98404.25
2022-08-05T01:52:49.875Z,98407.37
2022-08-05T01:53:04.757Z,98407.53
2022-08-05T01:53:17.726Z,98412.41
2022-08-05T01:53:57.048Z,98411.72
2022-08-05T01:54:11.498Z,98406.13
2022-08-05T01:54:46.192Z,98409.56
2022-08-05T01:55:01.653Z,98407.13
2022-08-05T01:55:18.402Z,98405.78
2022-08-05T01:55:32.596Z,98406.63
2022-08-05T01:55:49.303Z,98405.59
2022-08-05T01:56:04.291Z,98410.19
2022-08-05T01:58:09.432Z,98406.63
2022-08-05T01:58:10.720Z,98401.53
2022-08-05T01:58:12.460Z,98406.78
2022-08-05T01:58:12.558Z,98403.06
2022-08-05T01:58:40.561Z,98409.34
2022-08-05T01:58:58.331Z,98409.34
2022-08-05T01:59:15.907Z,98409.34
2022-08-05T01:59:28.817Z,98404.25
2022-08-05T01:59:46.952Z,98406.28
2022-08-05T02:00:01.270Z,98405.94
2022-08-05T02:00:14.508Z,98403.22
2022-08-05T02:00:30.368Z,98395.94
2022-08-05T02:00:45.866Z,98408.50
2022-08-05T02:00:59.459Z,98409.66
2022-08-05T02:01:13.598Z,98411.38
2022-08-05T02:01:26.609Z,98401.53
2022-08-05T02:01:40.695Z,98404.25
2022-08-05T02:01:54.757Z,98402.56
2022-08-05T02:02:10.711Z,98404.25
2022-08-05T02:02:25.801Z,98402.38
2022-08-05T02:02:46.447Z,98403.06
2022-08-05T02:03:24.389Z,98398.16
2022-08-05T02:03:44.982Z,98407.47
2022-08-05T02:03:57.906Z,98408.66
2022-08-05T02:04:10.916Z,98403.91
2022-08-05T02:04:24.298Z,98402.06
2022-08-05T02:04:38.605Z,98406.47
2022-08-05T02:04:54.902Z,98404.75
2022-08-05T02:05:11.817Z,98403.41
2022-08-05T02:05:30.527Z,98400.53
2022-08-05T02:05:47.493Z,98404.25
2022-08-05T02:06:03.713Z,98397.97
2022-08-05T02:06:38.270Z,98400.84
2022-08-05T02:06:51.619Z,98401.88
2022-08-05T02:07:04.600Z,98400.84
2022-08-05T02:07:22.057Z,98407.28
2022-08-05T02:07:35.668Z,98409.66
2022-08-05T02:07:59.925Z,98405.44
2022-08-05T02:08:13.901Z,98402.00
2022-08-05T02:08:54.800Z,98404.88
2022-08-05T02:09:10.941Z,98408.59
2022-08-05T02:09:28.161Z,98395.44
2022-08-05T02:09:41.285Z,98397.44
2022-08-05T02:09:54.161Z,98405.44
2022-08-05T02:10:07.894Z,98402.16
2022-08-05T02:10:21.766Z,98403.88
2022-08-05T02:10:48.411Z,98394.41
2022-08-05T02:11:05.343Z,98401.00
2022-08-05T02:11:23.819Z,98404.25
2022-08-05T02:12:25.452Z,98402.72
2022-08-05T02:12:51.891Z,98403.56
2022-08-05T02:13:19.288Z,98405.44
2022-08-05T02:13:36.466Z,98401.53
2022-08-05T02:14:34.940Z,98405.25
2022-08-05T02:15:03.847Z,98409.44
2022-08-05T02:15:19.823Z,98403.19
2022-08-05T02:15:38.079Z,98409.13
2022-08-05T02:45:52.366Z,98396.78
2022-08-05T02:46:06.794Z,98391.19
2022-08-05T02:46:19.873Z,98394.28
2022-08-05T02:46:43.839Z,98399.38
2022-08-05T02:47:08.274Z,98396.66
2022-08-05T02:47:22.911Z,98392.25
2022-08-05T02:48:06.623Z,98398.88
2022-08-05T02:48:12.554Z,98394.13
2022-08-05T02:48:29.004Z,98397.84
2022-08-05T02:48:43.469Z,98398.69
2022-08-05T02:48:56.422Z,98394.97
2022-08-05T02:49:12.519Z,98401.41
2022-08-05T02:49:37.964Z,98401.06
2022-08-05T02:49:53.642Z,98395.81
2022-08-05T02:50:07.808Z,98393.44
2022-08-05T02:50:24.715Z,98395.13
2022-08-05T02:50:37.572Z,98403.28
2022-08-05T02:50:51.808Z,98399.72
2022-08-05T02:51:04.676Z,98396.00
2022-08-05T02:51:18.532Z,98397.00
2022-08-05T02:52:03.853Z,98403.09
2022-08-05T02:52:29.609Z,98396.66
2022-08-05T02:52:44.055Z,98398.00
2022-08-05T02:52:58.810Z,98401.69
2022-08-05T02:53:18.839Z,98399.00
2022-08-05T02:53:39.406Z,98396.28
2022-08-05T02:53:54.707Z,98400.84
2022-08-05T02:54:07.846Z,98397.28
2022-08-05T02:54:35.617Z,98391.19
2022-08-05T02:54:52.113Z,98404.06
2022-08-05T02:55:10.672Z,98398.47
2022-08-05T02:55:54.486Z,98393.06
2022-08-05T02:56:00.395Z,98396.44
2022-08-05T02:56:16.074Z,98395.59
2022-08-05T02:56:32.143Z,98395.59
2022-08-05T02:56:45.994Z,98401.03
2022-08-05T02:56:59.001Z,98402.03
2022-08-05T02:58:10.667Z,98403.22
2022-08-05T02:58:11.928Z,98397.94
2022-08-05T02:58:21.665Z,98399.66
2022-08-05T02:58:34.896Z,98390.84
2022-08-05T02:58:51.253Z,98395.41
2022-08-05T02:59:04.886Z,98394.41
2022-08-05T02:59:17.931Z,98388.13
2022-08-05T02:59:34.609Z,98398.13
2022-08-05T03:00:01.383Z,98389.12
2022-08-05T03:00:15.023Z,98399.13
2022-08-05T03:00:27.935Z,98392.69
2022-08-05T03:00:41.191Z,98391.00
2022-08-05T03:01:01.906Z,98395.41
2022-08-05T03:01:19.444Z,98391.53
2022-08-05T03:01:32.619Z,98394.06
2022-08-05T03:01:45.731Z,98396.78
2022-08-05T03:02:00.730Z,98390.34
2022-08-05T03:02:13.887Z,98397.62
2022-08-05T03:02:29.485Z,98396.09
2022-08-05T03:02:42.764Z,98395.25
2022-08-05T03:02:56.044Z,98393.37
2022-08-05T03:03:10.460Z,98393.37
2022-08-05T03:03:23.812Z,98394.41
2022-08-05T03:04:02.998Z,98394.56
2022-08-05T03:04:15.785Z,98393.37
2022-08-05T03:04:28.734Z,98391.19
2022-08-05T03:04:42.735Z,98388.47
2022-08-05T03:04:55.998Z,98385.78
2022-08-05T03:05:10.324Z,98388.97
2022-08-05T03:06:55.502Z,98386.25
2022-08-05T03:06:55.671Z,98393.53
2022-08-05T03:06:56.816Z,98391.00
2022-08-05T03:07:02.213Z,98392.37
2022-08-05T03:07:17.598Z,98390.84
2022-08-05T03:08:00.979Z,98397.28
2022-08-05T03:08:29.593Z,98385.56
2022-08-05T03:08:43.290Z,98394.84
2022-08-05T03:08:56.473Z,98388.44
2022-08-05T03:09:12.222Z,98384.00
2022-08-05T03:09:37.661Z,98386.72
2022-08-05T03:09:52.042Z,98388.28
2022-08-05T03:10:06.169Z,98389.81
2022-08-05T03:10:21.719Z,98388.13
2022-08-05T03:10:37.539Z,98382.88
2022-08-05T03:11:01.281Z,98387.44
2022-08-05T03:11:55.114Z,98379.31
2022-08-05T03:11:58.346Z,98383.03
2022-08-05T03:12:11.734Z,98388.44
2022-08-05T03:12:34.574Z,98384.00
2022-08-05T03:12:47.663Z,98379.59
2022-08-05T03:13:16.582Z,98377.91
2022-08-05T03:13:51.132Z,98380.63
2022-08-05T03:14:04.174Z,98382.19
2022-08-05T03:14:17.208Z,98380.16
2022-08-05T03:14:30.230Z,98385.03
2022-08-05T03:14:45.600Z,98377.63
2022-08-05T03:14:59.195Z,98383.03
2022-08-05T03:15:12.279Z,98373.72
2022-08-05T03:15:25.417Z,98381.84
2022-08-05T03:15:38.573Z,98375.59
2022-08-05T03:15:51.872Z,98374.91
2022-08-05T03:16:04.973Z,98381.47
2022-08-05T03:16:17.847Z,98383.31
2022-08-05T03:16:32.501Z,98379.59
2022-08-05T03:16:48.832Z,98376.75
2022-08-05T03:17:08.947Z,98374.06
2022-08-05T03:17:22.241Z,98377.63
2022-08-05T03:17:41.891Z,98375.88
2022-08-05T03:17:58.075Z,98375.03
2022-08-05T03:18:12.568Z,98377.75
2022-08-05T03:18:30.792Z,98384.19
2022-08-05T03:18:43.653Z,98381.62
2022-08-05T03:19:00.707Z,98381.62
2022-08-05T03:19:34.650Z,98379.94
2022-08-05T03:19:49.783Z,98377.37
2022-08-05T03:20:02.903Z,98375.81
2022-08-05T03:20:15.805Z,98378.84
2022-08-05T03:20:28.878Z,98374.12
2022-08-05T03:20:44.563Z,98376.53
2022-08-05T03:21:01.665Z,98374.69
2022-08-05T03:21:16.032Z,98376.03
2022-08-05T03:21:29.077Z,98374.06
2022-08-05T03:21:54.147Z,98385.03
2022-08-05T03:22:16.345Z,98371.81
2022-08-05T03:22:32.714Z,98372.66
2022-08-05T03:22:50.055Z,98377.91
2022-08-05T03:23:05.830Z,98377.22
2022-08-05T03:23:18.848Z,98367.69
2022-08-05T03:23:38.601Z,98378.41
2022-08-05T03:23:52.876Z,98375.69
2022-08-05T03:24:06.473Z,98382.25
2022-08-05T03:24:29.246Z,98374.12
2022-08-05T03:24:43.238Z,98372.25
2022-08-05T03:25:11.587Z,98371.28
2022-08-05T03:26:04.383Z,98375.81
2022-08-05T03:26:31.407Z,98373.81
2022-08-05T03:26:39.126Z,98377.91
2022-08-05T03:26:52.123Z,98372.97
2022-08-05T03:27:06.628Z,98370.41
2022-08-05T03:27:20.107Z,98377.84
2022-08-05T03:27:39.390Z,98374.28
2022-08-05T03:28:07.136Z,98368.88
2022-08-05T03:28:21.412Z,98366.84
2022-08-05T03:28:34.301Z,98372.25
2022-08-05T03:28:47.729Z,98375.81
2022-08-05T03:29:00.989Z,98377.69
2022-08-05T03:29:17.294Z,98376.16
2022-08-05T03:29:45.894Z,98370.56
2022-08-05T03:30:08.670Z,98373.81
2022-08-05T03:30:33.336Z,98370.41
2022-08-05T03:30:47.601Z,98370.28
2022-08-05T03:31:01.142Z,98372.25
2022-08-05T03:31:25.893Z,98369.41
2022-08-05T03:31:55.391Z,98367.69
2022-08-05T03:32:10.504Z,98364.84
2022-08-05T03:32:30.944Z,98378.25
2022-08-05T03:32:44.108Z,98368.03
2022-08-05T03:32:56.957Z,98361.59
2022-08-05T03:33:09.907Z,98365.31
2022-08-05T03:33:22.812Z,98369.87
2022-08-05T03:33:52.741Z,98365.31
2022-08-05T03:34:06.183Z,98368.03
2022-08-05T03:34:19.244Z,98364.59
2022-08-05T03:34:37.314Z,98369.72
2022-08-05T03:34:52.723Z,98366.00
2022-08-05T03:35:06.078Z,98364.31
2022-08-05T03:35:21.824Z,98360.56
2022-08-05T03:35:40.895Z,98368.03
2022-08-05T03:35:56.309Z,98359.72
2022-08-05T03:36:12.166Z,98364.47
2022-08-05T03:36:30.075Z,98360.75
2022-08-05T03:36:43.636Z,98369.72
2022-08-05T03:36:57.065Z,98363.44
2022-08-05T03:37:10.389Z,98365.31
2022-08-05T03:37:23.492Z,98367.69
2022-08-05T03:37:45.823Z,98363.16
2022-08-05T03:37:59.839Z,98371.41
2022-08-05T03:38:14.513Z,98369.87
2022-08-05T03:38:32.849Z,98366.28
2022-08-05T03:38:53.399Z,98359.19
2022-08-05T03:39:19.797Z,98370.87
2022-08-05T03:39:38.111Z,98365.44
2022-08-05T03:40:01.116Z,98361.75
2022-08-05T03:40:15.284Z,98363.44
2022-08-05T03:40:32.083Z,98365.31
2022-08-05T03:40:48.554Z,98368.31
2022-08-05T03:41:08.392Z,98363.59
2022-08-05T03:41:23.741Z,98360.03
2022-08-05T03:41:38.691Z,98365.59
2022-08-05T03:41:59.660Z,98364.59
2022-08-05T03:42:14.896Z,98368.31
2022-08-05T03:42:32.908Z,98363.75
2022-08-05T03:42:54.694Z,98366.47
2022-08-05T03:43:59.052Z,98361.03
2022-08-05T03:44:09.535Z,98362.59
2022-08-05T03:44:13.424Z,98362.37
2022-08-05T03:44:33.056Z,98363.22
2022-08-05T03:44:46.416Z,98369.34
2022-08-05T03:45:01.890Z,98366.28
2022-08-05T03:45:57.151Z,98360.88
2022-08-05T03:46:08.130Z,98365.94
2022-08-05T03:46:21.217Z,98364.94
2022-08-05T03:46:39.738Z,98363.91
2022-08-05T03:46:52.592Z,98360.03
2022-08-05T03:47:05.591Z,98362.72
2022-08-05T03:47:18.955Z,98361.03
2022-08-05T03:47:35.419Z,98370.87
2022-08-05T03:47:57.032Z,98361.87
2022-08-05T03:48:10.211Z,98364.94
2022-08-05T03:48:23.965Z,98362.91
2022-08-05T03:48:36.978Z,98368.31
2022-08-05T03:48:49.874Z,98366.62
2022-08-05T03:49:03.940Z,98365.59
2022-08-05T03:49:16.854Z,98365.59
2022-08-05T03:49:31.106Z,98365.59
2022-08-05T03:50:02.520Z,98363.75
2022-08-05T03:50:15.396Z,98370.00
2022-08-05T03:50:41.572Z,98368.31
2022-08-05T03:52:38.562Z,98369.50
2022-08-05T03:52:39.424Z,98366.62
2022-08-05T03:52:49.156Z,98363.06
2022-08-05T03:55:51.303Z,98376.59
2022-08-05T03:55:52.078Z,98368.03
2022-08-05T03:55:53.955Z,98371.03
2022-08-05T03:56:01.183Z,98373.06
2022-08-05T03:56:01.516Z,98365.59
2022-08-05T03:56:30.507Z,98364.06
2022-08-05T03:56:47.948Z,98368.66
2022-08-05T03:57:16.084Z,98362.91
2022-08-05T03:57:41.764Z,98363.91
2022-08-05T03:57:55.780Z,98369.34
2022-08-05T03:58:10.796Z,98370.50
2022-08-05T03:58:28.925Z,98369.81
2022-08-05T03:58:43.086Z,98365.25
2022-08-05T03:59:00.277Z,98366.09
2022-08-05T03:59:24.688Z,98375.91
2022-08-05T03:59:54.765Z,98364.94
2022-08-05T04:00:15.489Z,98366.25
2022-08-05T04:00:31.473Z,98372.38
2022-08-05T04:00:44.471Z,98372.38
2022-08-05T04:01:06.317Z,98363.72
2022-08-05T04:01:20.967Z,98374.38
2022-08-05T04:01:35.213Z,98364.25
2022-08-05T04:01:49.302Z,98370.50
2022-08-05T04:02:03.052Z,98368.66
2022-08-05T04:02:17.519Z,98365.09
2022-08-05T04:02:52.007Z,98367.28
2022-08-05T04:03:26.699Z,98366.59
2022-08-05T04:03:42.513Z,98368.28
2022-08-05T04:04:21.047Z,98372.69
2022-08-05T04:04:34.232Z,98370.16
2022-08-05T04:04:47.096Z,98371.00
2022-08-05T04:05:00.021Z,98372.97
2022-08-05T04:05:13.061Z,98373.53
2022-08-05T04:05:33.950Z,98358.28
2022-08-05T04:05:47.496Z,98368.97
2022-08-05T04:06:00.678Z,98372.69
2022-08-05T04:06:13.634Z,98372.69
2022-08-05T04:06:27.094Z,98369.28
2022-08-05T04:06:47.407Z,98378.41
2022-08-05T04:07:01.241Z,98368.75
2022-08-05T04:07:16.837Z,98364.72
2022-08-05T04:07:33.054Z,98377.09
2022-08-05T04:07:57.430Z,98368.97
2022-08-05T04:08:22.464Z,98374.06
2022-08-05T04:08:44.177Z,98367.09
2022-08-05T04:09:02.394Z,98368.97
2022-08-05T04:09:20.308Z,98375.41
2022-08-05T04:09:39.119Z,98369.97
2022-08-05T04:10:06.858Z,98371.00
2022-08-05T04:10:20.637Z,98367.97
2022-08-05T04:10:37.942Z,98372.38
2022-08-05T04:10:51.563Z,98370.34
2022-08-05T04:11:06.048Z,98366.62
2022-08-05T04:11:18.937Z,98371.19
2022-08-05T04:11:47.119Z,98371.50
2022-08-05T04:12:03.299Z,98369.81
2022-08-05T04:12:47.950Z,98375.06
2022-08-05T04:13:01.986Z,98369.13
2022-08-05T04:13:18.641Z,98376.41
2022-08-05T04:13:51.201Z,98380.97
2022-08-05T04:14:04.538Z,98377.44
2022-08-05T04:14:17.992Z,98374.72
2022-08-05T04:14:31.230Z,98369.28
2022-08-05T04:14:44.125Z,98370.16
2022-08-05T04:14:57.729Z,98373.88
2022-08-05T04:15:15.578Z,98370.28
2022-08-05T04:15:32.726Z,98372.28
2022-08-05T04:16:02.802Z,98373.31
2022-08-05T04:16:25.445Z,98376.69
2022-08-05T04:16:44.902Z,98370.44
2022-08-05T04:17:03.029Z,98373.53
2022-08-05T04:17:16.060Z,98374.38
2022-08-05T04:17:36.373Z,98368.97
2022-08-05T04:18:04.049Z,98367.28
2022-08-05T04:18:25.535Z,98373.53
2022-08-05T04:18:39.078Z,98373.53